Time,TemperatureF,DewpointF,PressureIn,WindDirection,WindDirectionDegrees,WindSpeedMPH,WindSpeedGustMPH,Humidity,HourlyPrecipIn,Conditions,Clouds,dailyrainin,SolarRadiationWatts/m^2,SoftwareType,DateUTC
2013-10-13 00:21:00,34.0,28.0,-100.00,ESE,112,4.0,7.0,78,-99.99,,,-99.99,0.000000,,2013-10-13 07:21:00,
2013-10-13 00:30:00,34.0,28.0,-100.00,East,90,6.0,9.0,80,-99.99,,,-99.99,0.000000,,2013-10-13 07:30:00,
2013-10-13 01:22:00,34.0,28.0,-100.00,East,90,6.0,9.0,80,-99.99,,,-99.99,0.000000,,2013-10-13 08:22:00,
2013-10-13 01:30:00,33.0,28.0,-100.00,East,95,6.0,10.0,81,-99.99,,,-99.99,0.000000,,2013-10-13 08:30:00,
2013-10-13 02:22:00,33.0,28.0,-100.00,East,95,6.0,10.0,81,-99.99,,,-99.99,0.000000,,2013-10-13 09:22:00,
2013-10-13 02:30:00,33.0,29.0,-100.00,SSE,168,1.0,4.0,83,-99.99,,,-99.99,0.000000,,2013-10-13 09:30:00,
2013-10-13 03:23:00,33.0,29.0,-100.00,SSE,168,1.0,4.0,83,-99.99,,,-99.99,0.000000,,2013-10-13 10:23:00,
2013-10-13 03:30:00,34.0,28.0,-100.00,ESE,122,3.0,5.0,79,-99.99,,,-99.99,0.000000,,2013-10-13 10:30:00,
2013-10-13 04:21:00,34.0,28.0,-100.00,ESE,122,3.0,5.0,79,-99.99,,,-99.99,0.000000,,2013-10-13 11:21:00,
2013-10-13 04:30:00,31.0,29.0,-100.00,SE,125,3.0,9.0,95,-99.99,,,-99.99,0.000000,,2013-10-13 11:30:00,
2013-10-13 05:21:00,31.0,29.0,-100.00,SE,125,3.0,9.0,95,-99.99,,,-99.99,0.000000,,2013-10-13 12:21:00,
2013-10-13 05:30:00,31.0,30.0,-100.00,NE,43,3.0,5.0,96,-99.99,,,-99.99,0.000000,,2013-10-13 12:30:00,
2013-10-13 06:22:00,31.0,30.0,-100.00,NE,43,3.0,5.0,96,-99.99,,,-99.99,0.000000,,2013-10-13 13:22:00,
2013-10-13 06:30:00,32.0,29.0,-100.00,ENE,70,3.0,5.0,91,-99.99,,,-99.99,0.000000,,2013-10-13 13:30:00,
2013-10-13 07:21:00,32.0,29.0,-100.00,ENE,70,3.0,5.0,91,-99.99,,,-99.99,0.000000,,2013-10-13 14:21:00,
2013-10-13 07:30:00,32.0,29.0,-100.00,ENE,73,2.0,3.0,88,-99.99,,,-99.99,3.000000,,2013-10-13 14:30:00,
2013-10-13 08:22:00,32.0,29.0,-100.00,ENE,73,2.0,3.0,88,-99.99,,,-99.99,3.000000,,2013-10-13 15:22:00,
2013-10-13 08:30:00,35.0,29.0,-100.00,East,96,2.0,3.0,78,-99.99,,,-99.99,142.000000,,2013-10-13 15:30:00,
2013-10-13 09:24:00,35.0,29.0,-100.00,East,96,2.0,3.0,78,-99.99,,,-99.99,142.000000,,2013-10-13 16:24:00,
2013-10-13 09:30:00,36.0,30.0,-100.00,ENE,62,3.0,6.0,79,-99.99,,,-99.99,68.000000,,2013-10-13 16:30:00,
2013-10-13 10:22:00,36.0,30.0,-100.00,ENE,62,3.0,6.0,79,-99.99,,,-99.99,68.000000,,2013-10-13 17:22:00,
2013-10-13 10:30:00,36.0,29.0,-100.00,NNE,28,5.0,10.0,76,-99.99,,,-99.99,83.000000,,2013-10-13 17:30:00,
2013-10-13 11:22:00,36.0,29.0,-100.00,NNE,28,5.0,10.0,76,-99.99,,,-99.99,83.000000,,2013-10-13 18:22:00,
2013-10-13 11:30:00,39.0,28.0,-100.00,ENE,70,4.0,9.0,66,-99.99,,,-99.99,517.000000,,2013-10-13 18:30:00,
2013-10-13 12:22:00,39.0,28.0,-100.00,ENE,70,4.0,9.0,66,-99.99,,,-99.99,517.000000,,2013-10-13 19:22:00,
2013-10-13 12:30:00,40.0,28.0,-100.00,NE,55,6.0,11.0,62,-99.99,,,-99.99,553.000000,,2013-10-13 19:30:00,
2013-10-13 13:22:00,40.0,28.0,-100.00,NE,55,6.0,11.0,62,-99.99,,,-99.99,553.000000,,2013-10-13 20:22:00,
2013-10-13 14:30:00,45.0,24.0,-100.00,ESE,114,2.0,8.0,43,-99.99,,,-99.99,402.000000,,2013-10-13 21:30:00,
2013-10-13 15:24:00,45.0,24.0,-100.00,ESE,114,2.0,8.0,43,-99.99,,,-99.99,402.000000,,2013-10-13 22:24:00,
2013-10-13 15:30:00,46.0,26.0,-100.00,ESE,120,2.0,8.0,46,-99.99,,,-99.99,304.000000,,2013-10-13 22:30:00,
2013-10-13 16:22:00,46.0,26.0,-100.00,ESE,120,2.0,8.0,46,-99.99,,,-99.99,304.000000,,2013-10-13 23:22:00,
2013-10-13 16:30:00,44.0,26.0,-100.00,East,85,3.0,9.0,49,-99.99,,,-99.99,81.000000,,2013-10-13 23:30:00,
2013-10-13 17:21:00,44.0,26.0,-100.00,East,85,3.0,9.0,49,-99.99,,,-99.99,81.000000,,2013-10-14 00:21:00,
2013-10-13 17:30:00,40.0,23.0,-100.00,ENE,74,4.0,8.0,51,-99.99,,,-99.99,10.000000,,2013-10-14 00:30:00,
2013-10-13 18:21:00,40.0,23.0,-100.00,ENE,74,4.0,8.0,51,-99.99,,,-99.99,10.000000,,2013-10-14 01:21:00,
2013-10-13 18:30:00,39.0,23.0,-100.00,SE,136,3.0,5.0,52,-99.99,,,-99.99,2.000000,,2013-10-14 01:30:00,
2013-10-13 19:22:00,39.0,23.0,-100.00,SE,136,3.0,5.0,52,-99.99,,,-99.99,2.000000,,2013-10-14 02:22:00,
2013-10-13 19:30:00,37.0,25.0,-100.00,NE,34,0.0,2.0,61,-99.99,,,-99.99,0.000000,,2013-10-14 02:30:00,
2013-10-13 20:22:00,37.0,25.0,-100.00,NE,34,0.0,2.0,61,-99.99,,,-99.99,0.000000,,2013-10-14 03:22:00,
2013-10-13 21:30:00,35.0,26.0,-100.00,NNE,28,7.0,14.0,70,-99.99,,,-99.99,0.000000,,2013-10-14 04:30:00,
2013-10-13 22:23:00,35.0,26.0,-100.00,NNE,28,7.0,14.0,70,-99.99,,,-99.99,0.000000,,2013-10-14 05:23:00,
2013-10-13 22:30:00,35.0,26.0,-100.00,NE,38,6.0,10.0,70,-99.99,,,-99.99,0.000000,,2013-10-14 05:30:00,
2013-10-13 23:22:00,35.0,26.0,-100.00,NE,38,6.0,10.0,70,-99.99,,,-99.99,0.000000,,2013-10-14 06:22:00,